Terminal Aerodrome Forecast
Issued by NWS

Home | Current Version | Previous Version | Text Only | Print | Product List | Glossary On
Versions: 1 2 3 4 5 6 7 8 9 10 11 12 13 14 15 16 17 18 19 20 21 22 23 24 25 26 27 28 29 30 31
000
FTUS45 KBOU 221740
TAFBJC
TAF
KBJC 221740Z 2218/2318 VRB05KT P6SM FEW140 SCT200
     FM222100 12010KT P6SM SCT090 BKN150
      TEMPO 2221/2224 4SM -TSRA BKN070CB
     FM230200 32008KT P6SM FEW100 BKN180
     FM230500 25009KT P6SM SCT140 SCT200
     FM231400 VRB05KT P6SM FEW120 SCT220=

USA.gov is the U.S. government's official web portal to all federal, state and local government web resources and services.